Rachel Carson — WDF9370 — position and weather

sailwx.info

Track history (hours):
 
Tides and Currents Weather Stations Pressure Air Temp Water Temp Dewpoint Dewpoint Depression Visibility Wind Speed Wind Dir Waves Ship Positions

Oceanographic research ship Rachel Carson (USA)

Owner: Monterey Bay Aquarium Research Institute, Moss Landing, CA. More information available from US FCC via Universal Licensing System and Coast Guard Vessel Documentation Center.

Last reported at 2018-Apr-25 02:30 UTC. Time now 2018-Apr-25 02:43 UTC.
Position N 36°06' W 121°51'.

Length 42 m; draft 3 m.

Type: Cargo ship. MMSI: 338415000.

Date/timePositionNaut miles runAvg speedWind from/ knotsBaromVisibWave heightAir tempDewpointWater temp
2018-Apr-25 02:30N 36°06' W 121°51'5 9.7
2018-Apr-25 01:59N 36°10' W 121°54'5 9.4
2018-Apr-25 01:26N 36°15' W 121°58'5 9.8
2018-Apr-25 00:57N 36°19' W 121°60'410.0
2018-Apr-25 00:30N 36°23' W 122°01'610.5
2018-Apr-24 23:57N 36°29' W 122°03'610.6
2018-Apr-24 23:26N 36°34' W 122°04'410.1
2018-Apr-24 23:00N 36°39' W 122°05'1 2.4
2018-Apr-24 22:27N 36°40' W 122°06'1 1.4
2018-Apr-24 22:00N 36°40' W 122°05'5 9.5
2018-Apr-24 21:29N 36°43' W 122°00'5 9.7
2018-Apr-24 20:56N 36°45' W 121°54'4 9.6
2018-Apr-24 20:30N 36°47' W 121°50'2 1.3
2018-Apr-24 18:46N 36°48' W 121°47'0 0.0
2018-Apr-24 18:19N 36°48' W 121°47'0 0.0
2018-Apr-24 17:55N 36°48' W 121°47'0 0.0
2018-Apr-24 17:25N 36°48' W 121°47'0 0.0
2018-Apr-24 16:16N 36°48' W 121°47'0 0.0
2018-Apr-24 15:55N 36°48' W 121°47'0 0.0
2018-Apr-24 15:28N 36°48' W 121°47'0 0.0
2018-Apr-24 14:46N 36°48' W 121°47'0 0.0
2018-Apr-24 14:22N 36°48' W 121°47'0 0.0
2018-Apr-24 13:58N 36°48' W 121°47'0 0.0
2018-Apr-24 12:34N 36°48' W 121°47'0 0.0
2018-Apr-24 12:19N 36°48' W 121°47'0 0.0
2018-Apr-24 11:49N 36°48' W 121°47'0 0.0
2018-Apr-24 11:28N 36°48' W 121°47'0 0.0
2018-Apr-24 10:46N 36°48' W 121°47'0 0.0
2018-Apr-24 10:25N 36°48' W 121°47'0 0.0
2018-Apr-24 09:58N 36°48' W 121°47'0 0.0
2018-Apr-24 09:25N 36°48' W 121°47'0 0.0
2018-Apr-24 08:43N 36°48' W 121°47'0 0.0
2018-Apr-24 07:58N 36°48' W 121°47'0 0.0
2018-Apr-24 07:28N 36°48' W 121°47'0 0.0
2018-Apr-24 06:58N 36°48' W 121°47'0 0.0
2018-Apr-24 06:28N 36°48' W 121°47'0 0.0
2018-Apr-24 05:55N 36°48' W 121°47'0 0.0
2018-Apr-24 05:28N 36°48' W 121°47'0 0.0
2018-Apr-24 04:52N 36°48' W 121°47'0 0.0
2018-Apr-24 04:28N 36°48' W 121°47'0 0.0
2018-Apr-24 03:49N 36°48' W 121°47'0 0.0
2018-Apr-24 03:25N 36°48' W 121°47'0 0.0
2018-Apr-24 02:58N 36°48' W 121°47'0 0.0
2018-Apr-24 01:37N 36°48' W 121°47'0 0.0
2018-Apr-24 01:19N 36°48' W 121°47'0 0.0
2018-Apr-24 00:49N 36°48' W 121°47'0 0.0
2018-Apr-24 00:25N 36°48' W 121°47'0 0.0
2018-Apr-23 23:37N 36°48' W 121°47'0 0.0
2018-Apr-23 23:19N 36°48' W 121°47'0 0.0
2018-Apr-23 22:16N 36°48' W 121°47'0 0.0
2018-Apr-23 21:40N 36°48' W 121°47'0 0.0
2018-Apr-23 21:13N 36°48' W 121°47'0 0.0
2018-Apr-23 20:52N 36°48' W 121°47'0 0.0
2018-Apr-23 20:25N 36°48' W 121°47'0 0.0
2018-Apr-23 19:58N 36°48' W 121°47'0 0.0
2018-Apr-23 19:22N 36°48' W 121°47'0 0.0
2018-Apr-23 18:52N 36°48' W 121°47'0 0.0
2018-Apr-22 06:56N 36°48' W 121°47'0 0.0
2018-Apr-22 06:29N 36°48' W 121°47'0 0.0
2018-Apr-22 05:56N 36°48' W 121°47'0 0.0
2018-Apr-22 05:17N 36°48' W 121°47'0 0.0
2018-Apr-22 04:53N 36°48' W 121°47'0 0.0
2018-Apr-22 04:29N 36°48' W 121°47'0 0.0
2018-Apr-22 03:59N 36°48' W 121°47'0 0.0
2018-Apr-22 03:26N 36°48' W 121°47'0 0.0
2018-Apr-22 02:56N 36°48' W 121°47'0 0.0
2018-Apr-22 02:29N 36°48' W 121°47'0 0.0
2018-Apr-22 01:53N 36°48' W 121°47'0 0.0
2018-Apr-22 01:23N 36°48' W 121°47'0 0.0
2018-Apr-22 00:41N 36°48' W 121°47'0 0.0
2018-Apr-22 00:26N 36°48' W 121°47'0 0.0
2018-Apr-21 22:38N 36°48' W 121°47'0 0.0
2018-Apr-21 22:13N 36°48' W 121°47'0 0.0
2018-Apr-21 21:50N 36°48' W 121°47'0 0.0
2018-Apr-21 21:23N 36°48' W 121°47'0 0.0
2018-Apr-21 20:55N 36°48' W 121°47'0 0.0
2018-Apr-21 20:26N 36°48' W 121°47'0 0.0
2018-Apr-21 19:59N 36°48' W 121°47'0 0.0
2018-Apr-21 19:29N 36°48' W 121°47'0 0.0
2018-Apr-21 16:47N 36°48' W 121°47'0 0.0
2018-Apr-21 16:28N 36°48' W 121°47'0 0.0
2018-Apr-21 15:59N 36°48' W 121°47'0 0.0
2018-Apr-21 15:26N 36°48' W 121°47'0 0.0
2018-Apr-21 14:59N 36°48' W 121°47'0 0.0
2018-Apr-21 14:25N 36°48' W 121°47'0 0.0
2018-Apr-21 13:58N 36°48' W 121°47'0 0.0
2018-Apr-21 13:25N 36°48' W 121°47'0 0.0
2018-Apr-21 12:58N 36°48' W 121°47'0 0.0
2018-Apr-21 12:28N 36°48' W 121°47'0 0.0
2018-Apr-21 11:59N 36°48' W 121°47'0 0.0
2018-Apr-21 11:29N 36°48' W 121°47'0 0.0
2018-Apr-21 10:50N 36°48' W 121°47'0 0.0
2018-Apr-21 10:26N 36°48' W 121°47'0 0.0
2018-Apr-21 09:58N 36°48' W 121°47'0 0.0
2018-Apr-21 09:28N 36°48' W 121°47'0 0.0
2018-Apr-21 08:56N 36°48' W 121°47'0 0.0
2018-Apr-21 08:11N 36°48' W 121°47'0 0.0
2018-Apr-21 07:40N 36°48' W 121°47'0 0.0
2018-Apr-21 07:28N 36°48' W 121°47'0 0.0
2018-Apr-21 06:59N 36°48' W 121°47'0 0.0
2018-Apr-21 06:25N 36°48' W 121°47'0 0.0
2018-Apr-21 05:58N 36°48' W 121°47'0 0.0
2018-Apr-21 05:28N 36°48' W 121°47'0 0.0
2018-Apr-21 04:55N 36°48' W 121°47'0 0.0
2018-Apr-21 04:22N 36°48' W 121°47'0 0.0
2018-Apr-21 03:58N 36°48' W 121°47'0 0.0
2018-Apr-21 03:28N 36°48' W 121°47'0 0.0
2018-Apr-21 02:58N 36°48' W 121°47'0 0.0
2018-Apr-21 02:28N 36°48' W 121°47'0 0.0
2018-Apr-21 01:55N 36°48' W 121°47'0 0.0
2018-Apr-21 01:25N 36°48' W 121°47'0 0.0
2018-Apr-21 00:13N 36°48' W 121°47'0 0.0
2018-Apr-20 23:49N 36°48' W 121°47'0 0.0
2018-Apr-20 23:22N 36°48' W 121°47'0 0.0
2018-Apr-20 22:56N 36°48' W 121°47'0 0.0
2018-Apr-20 22:13N 36°48' W 121°47'0 0.0
2018-Apr-20 21:55N 36°48' W 121°47'0 0.0
2018-Apr-20 21:25N 36°48' W 121°47'0 0.0
2018-Apr-20 20:46N 36°48' W 121°47'0 0.0
2018-Apr-20 20:13N 36°48' W 121°47'0 0.0
2018-Apr-20 19:40N 36°48' W 121°47'0 0.0
2018-Apr-20 19:19N 36°48' W 121°47'0 0.0
2018-Apr-20 18:46N 36°48' W 121°47'0 0.0
2018-Apr-20 17:55N 36°48' W 121°47'0 0.0
2018-Apr-20 17:25N 36°48' W 121°47'0 0.0
2018-Apr-20 08:28N 36°48' W 121°47'0 0.0
2018-Apr-20 07:55N 36°48' W 121°47'0 0.0
2018-Apr-20 07:28N 36°48' W 121°47'0 0.0
2018-Apr-20 06:52N 36°48' W 121°47'0 0.0
2018-Apr-20 06:28N 36°48' W 121°47'0 0.0
2018-Apr-20 05:58N 36°48' W 121°47'0 0.0
2018-Apr-20 05:28N 36°48' W 121°47'0 0.0
2018-Apr-20 04:55N 36°48' W 121°47'0 0.0
2018-Apr-20 04:22N 36°48' W 121°47'0 0.0
2018-Apr-20 03:58N 36°48' W 121°47'0 0.0
2018-Apr-20 03:10N 36°48' W 121°47'0 0.0
2018-Apr-20 02:52N 36°48' W 121°47'0 0.0
2018-Apr-20 02:25N 36°48' W 121°47'0 0.0
2018-Apr-20 01:34N 36°48' W 121°47'0 0.0
2018-Apr-20 01:28N 36°48' W 121°47'0 0.0
2018-Apr-20 00:47N 36°48' W 121°47'0 0.0
2018-Apr-20 00:19N 36°48' W 121°47'0 0.0
2018-Apr-19 23:58N 36°48' W 121°47'0 0.0
2018-Apr-19 23:22N 36°48' W 121°47'0 0.0
2018-Apr-19 22:58N 36°48' W 121°47'0 0.0
2018-Apr-19 22:22N 36°48' W 121°47'0 0.0
2018-Apr-19 21:55N 36°48' W 121°47'0 0.0
2018-Apr-19 21:28N 36°48' W 121°47'0 0.0
2018-Apr-19 20:58N 36°48' W 121°47'0 0.0
2018-Apr-19 20:22N 36°48' W 121°47'0 0.0
2018-Apr-19 19:50N 36°48' W 121°47'0 0.7
2018-Apr-19 19:26N 36°48' W 121°47'5 9.2
2018-Apr-19 18:55N 36°47' W 121°53'7 7.0
2018-Apr-19 17:57N 36°46' W 122°01'0 0.1
2018-Apr-19 17:29N 36°46' W 122°01'0 0.3
2018-Apr-19 16:52N 36°46' W 122°01'2 3.9
2018-Apr-19 16:26N 36°45' W 122°03'0 0.2
2018-Apr-19 15:59N 36°45' W 122°03'2 2.9
2018-Apr-19 15:27N 36°45' W 122°01'5 9.7
2018-Apr-19 14:58N 36°46' W 121°55'510.8
2018-Apr-19 14:30N 36°48' W 121°50'2 3.2
2018-Apr-19 13:55N 36°48' W 121°47'0 0.0
2018-Apr-19 13:27N 36°48' W 121°47'0 0.0
2018-Apr-19 12:48N 36°48' W 121°47'0 0.0
2018-Apr-19 12:27N 36°48' W 121°47'0 0.0
2018-Apr-19 11:54N 36°48' W 121°47'0 0.0
2018-Apr-19 11:27N 36°48' W 121°47'0 0.0
2018-Apr-19 10:58N 36°48' W 121°47'0 0.0
2018-Apr-19 10:29N 36°48' W 121°47'0 0.0
2018-Apr-19 10:00N 36°48' W 121°47'0 0.0
2018-Apr-19 09:25N 36°48' W 121°47'0 0.0
2018-Apr-19 09:00N 36°48' W 121°47'0 0.0
2018-Apr-19 08:28N 36°48' W 121°47'0 0.0
2018-Apr-19 07:57N 36°48' W 121°47'0 0.0
2018-Apr-19 07:27N 36°48' W 121°47'0 0.0
2018-Apr-19 06:58N 36°48' W 121°47'0 0.0
2018-Apr-19 06:27N 36°48' W 121°47'0 0.0
2018-Apr-19 05:54N 36°48' W 121°47'0 0.0
2018-Apr-19 05:24N 36°48' W 121°47'0 0.0
2018-Apr-19 04:57N 36°48' W 121°47'0 0.0
2018-Apr-19 04:30N 36°48' W 121°47'0 0.0
2018-Apr-19 03:57N 36°48' W 121°47'0 0.0
2018-Apr-19 03:27N 36°48' W 121°47'0 0.0
2018-Apr-19 02:57N 36°48' W 121°47'0 0.0
2018-Apr-19 02:27N 36°48' W 121°47'0 0.0
2018-Apr-19 01:57N 36°48' W 121°47'0 0.0
2018-Apr-19 00:06N 36°48' W 121°47'0 0.0
2018-Apr-18 23:57N 36°48' W 121°47'0 0.0
2018-Apr-18 23:27N 36°48' W 121°47'0 0.0
2018-Apr-18 22:56N 36°48' W 121°47'0 0.0
2018-Apr-18 22:30N 36°48' W 121°47'0 0.0
2018-Apr-18 21:57N 36°48' W 121°47'0 0.0
2018-Apr-18 21:14N 36°48' W 121°47'0 0.0
2018-Apr-18 20:48N 36°48' W 121°47'0 0.0
2018-Apr-18 20:29N 36°48' W 121°47'0 0.0
2018-Apr-18 20:00N 36°48' W 121°47'0 0.0
2018-Apr-18 19:29N 36°48' W 121°47'0 0.0
2018-Apr-18 19:00N 36°48' W 121°47'0 0.0
2018-Apr-18 18:30N 36°48' W 121°47'0 0.0
2018-Apr-18 17:44N 36°48' W 121°47'0 0.0
2018-Apr-18 17:29N 36°48' W 121°47'0 0.0
2018-Apr-18 16:56N 36°48' W 121°47'0 0.0
2018-Apr-18 16:26N 36°48' W 121°47'0 0.0
2018-Apr-18 15:59N 36°48' W 121°47'0 0.0
2018-Apr-18 15:24N 36°48' W 121°47'0 0.0
2018-Apr-18 14:59N 36°48' W 121°47'0 0.0
2018-Apr-18 14:27N 36°48' W 121°47'0 0.0
2018-Apr-18 13:56N 36°48' W 121°47'0 0.0
2018-Apr-18 13:27N 36°48' W 121°47'0 0.0
2018-Apr-18 12:57N 36°48' W 121°47'0 0.0
2018-Apr-18 12:27N 36°48' W 121°47'0 0.0
2018-Apr-18 11:56N 36°48' W 121°47'0 0.0
2018-Apr-18 11:27N 36°48' W 121°47'0 0.0
2018-Apr-18 10:58N 36°48' W 121°47'0 0.0
2018-Apr-18 10:26N 36°48' W 121°47'0 0.0
2018-Apr-18 10:00N 36°48' W 121°47'0 0.0
2018-Apr-18 09:29N 36°48' W 121°47'0 0.0
2018-Apr-18 08:59N 36°48' W 121°47'0 0.0
2018-Apr-18 08:21N 36°48' W 121°47'0 0.0
2018-Apr-18 07:54N 36°48' W 121°47'0 0.0
2018-Apr-18 07:29N 36°48' W 121°47'0 0.0
2018-Apr-18 06:56N 36°48' W 121°47'0 0.0
2018-Apr-18 06:26N 36°48' W 121°47'0 0.0
2018-Apr-18 05:56N 36°48' W 121°47'0 0.0
2018-Apr-18 05:29N 36°48' W 121°47'0 0.0
2018-Apr-18 04:56N 36°48' W 121°47'0 0.0
2018-Apr-18 04:26N 36°48' W 121°47'0 0.0
2018-Apr-18 03:56N 36°48' W 121°47'0 0.0
2018-Apr-18 03:20N 36°48' W 121°47'0 0.0
2018-Apr-18 02:44N 36°48' W 121°47'0 0.0
2018-Apr-18 02:20N 36°48' W 121°47'0 0.0
2018-Apr-18 01:56N 36°48' W 121°47'0 0.0
2018-Apr-18 01:26N 36°48' W 121°47'0 0.0
2018-Apr-18 00:56N 36°48' W 121°47'0 0.0
2018-Apr-18 00:26N 36°48' W 121°47'0 0.0
2018-Apr-17 23:56N 36°48' W 121°47'0 0.0
2018-Apr-17 23:26N 36°48' W 121°47'0 0.0
2018-Apr-17 22:58N 36°48' W 121°47'0 0.0
2018-Apr-17 22:29N 36°48' W 121°47'0 0.0
2018-Apr-17 21:57N 36°48' W 121°47'0 0.0
2018-Apr-17 21:30N 36°48' W 121°47'  
Track history (hours):
 
Tides and Currents Weather Stations Pressure Air Temp Water Temp Dewpoint Dewpoint Depression Visibility Wind Speed Wind Dir Waves Ship Positions

Oceanographic research ship Rachel Carson (USA)

Owner: Monterey Bay Aquarium Research Institute, Moss Landing, CA. More information available from US FCC via Universal Licensing System and Coast Guard Vessel Documentation Center.

Last reported at 2018-Apr-25 02:30 UTC. Time now 2018-Apr-25 02:43 UTC.
Position N 36°06' W 121°51'.

Length 42 m; draft 3 m.

Type: Cargo ship. MMSI: 338415000.

Date/timePositionNaut miles runAvg speedWind from/ knotsBaromVisibWave heightAir tempDewpointWater temp
2018-Apr-25 02:30N 36°06' W 121°51'5 9.7
2018-Apr-25 01:59N 36°10' W 121°54'5 9.4
2018-Apr-25 01:26N 36°15' W 121°58'5 9.8
2018-Apr-25 00:57N 36°19' W 121°60'410.0
2018-Apr-25 00:30N 36°23' W 122°01'610.5
2018-Apr-24 23:57N 36°29' W 122°03'610.6
2018-Apr-24 23:26N 36°34' W 122°04'410.1
2018-Apr-24 23:00N 36°39' W 122°05'1 2.4
2018-Apr-24 22:27N 36°40' W 122°06'1 1.4
2018-Apr-24 22:00N 36°40' W 122°05'5 9.5
2018-Apr-24 21:29N 36°43' W 122°00'5 9.7
2018-Apr-24 20:56N 36°45' W 121°54'4 9.6
2018-Apr-24 20:30N 36°47' W 121°50'2 1.3
2018-Apr-24 18:46N 36°48' W 121°47'0 0.0
2018-Apr-24 18:19N 36°48' W 121°47'0 0.0
2018-Apr-24 17:55N 36°48' W 121°47'0 0.0
2018-Apr-24 17:25N 36°48' W 121°47'0 0.0
2018-Apr-24 16:16N 36°48' W 121°47'0 0.0
2018-Apr-24 15:55N 36°48' W 121°47'0 0.0
2018-Apr-24 15:28N 36°48' W 121°47'0 0.0
2018-Apr-24 14:46N 36°48' W 121°47'0 0.0
2018-Apr-24 14:22N 36°48' W 121°47'0 0.0
2018-Apr-24 13:58N 36°48' W 121°47'0 0.0
2018-Apr-24 12:34N 36°48' W 121°47'0 0.0
2018-Apr-24 12:19N 36°48' W 121°47'0 0.0
2018-Apr-24 11:49N 36°48' W 121°47'0 0.0
2018-Apr-24 11:28N 36°48' W 121°47'0 0.0
2018-Apr-24 10:46N 36°48' W 121°47'0 0.0
2018-Apr-24 10:25N 36°48' W 121°47'0 0.0
2018-Apr-24 09:58N 36°48' W 121°47'0 0.0
2018-Apr-24 09:25N 36°48' W 121°47'0 0.0
2018-Apr-24 08:43N 36°48' W 121°47'0 0.0
2018-Apr-24 07:58N 36°48' W 121°47'0 0.0
2018-Apr-24 07:28N 36°48' W 121°47'0 0.0
2018-Apr-24 06:58N 36°48' W 121°47'0 0.0
2018-Apr-24 06:28N 36°48' W 121°47'0 0.0
2018-Apr-24 05:55N 36°48' W 121°47'0 0.0
2018-Apr-24 05:28N 36°48' W 121°47'0 0.0
2018-Apr-24 04:52N 36°48' W 121°47'0 0.0
2018-Apr-24 04:28N 36°48' W 121°47'0 0.0
2018-Apr-24 03:49N 36°48' W 121°47'0 0.0
2018-Apr-24 03:25N 36°48' W 121°47'0 0.0
2018-Apr-24 02:58N 36°48' W 121°47'0 0.0
2018-Apr-24 01:37N 36°48' W 121°47'0 0.0
2018-Apr-24 01:19N 36°48' W 121°47'0 0.0
2018-Apr-24 00:49N 36°48' W 121°47'0 0.0
2018-Apr-24 00:25N 36°48' W 121°47'0 0.0
2018-Apr-23 23:37N 36°48' W 121°47'0 0.0
2018-Apr-23 23:19N 36°48' W 121°47'0 0.0
2018-Apr-23 22:16N 36°48' W 121°47'0 0.0
2018-Apr-23 21:40N 36°48' W 121°47'0 0.0
2018-Apr-23 21:13N 36°48' W 121°47'0 0.0
2018-Apr-23 20:52N 36°48' W 121°47'0 0.0
2018-Apr-23 20:25N 36°48' W 121°47'0 0.0
2018-Apr-23 19:58N 36°48' W 121°47'0 0.0
2018-Apr-23 19:22N 36°48' W 121°47'0 0.0
2018-Apr-23 18:52N 36°48' W 121°47'0 0.0
2018-Apr-22 06:56N 36°48' W 121°47'0 0.0
2018-Apr-22 06:29N 36°48' W 121°47'0 0.0
2018-Apr-22 05:56N 36°48' W 121°47'0 0.0
2018-Apr-22 05:17N 36°48' W 121°47'0 0.0
2018-Apr-22 04:53N 36°48' W 121°47'0 0.0
2018-Apr-22 04:29N 36°48' W 121°47'0 0.0
2018-Apr-22 03:59N 36°48' W 121°47'0 0.0
2018-Apr-22 03:26N 36°48' W 121°47'0 0.0
2018-Apr-22 02:56N 36°48' W 121°47'0 0.0
2018-Apr-22 02:29N 36°48' W 121°47'0 0.0
2018-Apr-22 01:53N 36°48' W 121°47'0 0.0
2018-Apr-22 01:23N 36°48' W 121°47'0 0.0
2018-Apr-22 00:41N 36°48' W 121°47'0 0.0
2018-Apr-22 00:26N 36°48' W 121°47'0 0.0
2018-Apr-21 22:38N 36°48' W 121°47'0 0.0
2018-Apr-21 22:13N 36°48' W 121°47'0 0.0
2018-Apr-21 21:50N 36°48' W 121°47'0 0.0
2018-Apr-21 21:23N 36°48' W 121°47'0 0.0
2018-Apr-21 20:55N 36°48' W 121°47'0 0.0
2018-Apr-21 20:26N 36°48' W 121°47'0 0.0
2018-Apr-21 19:59N 36°48' W 121°47'0 0.0
2018-Apr-21 19:29N 36°48' W 121°47'0 0.0
2018-Apr-21 16:47N 36°48' W 121°47'0 0.0
2018-Apr-21 16:28N 36°48' W 121°47'0 0.0
2018-Apr-21 15:59N 36°48' W 121°47'0 0.0
2018-Apr-21 15:26N 36°48' W 121°47'0 0.0
2018-Apr-21 14:59N 36°48' W 121°47'0 0.0
2018-Apr-21 14:25N 36°48' W 121°47'0 0.0
2018-Apr-21 13:58N 36°48' W 121°47'0 0.0
2018-Apr-21 13:25N 36°48' W 121°47'0 0.0
2018-Apr-21 12:58N 36°48' W 121°47'0 0.0
2018-Apr-21 12:28N 36°48' W 121°47'0 0.0
2018-Apr-21 11:59N 36°48' W 121°47'0 0.0
2018-Apr-21 11:29N 36°48' W 121°47'0 0.0
2018-Apr-21 10:50N 36°48' W 121°47'0 0.0
2018-Apr-21 10:26N 36°48' W 121°47'0 0.0
2018-Apr-21 09:58N 36°48' W 121°47'0 0.0
2018-Apr-21 09:28N 36°48' W 121°47'0 0.0
2018-Apr-21 08:56N 36°48' W 121°47'0 0.0
2018-Apr-21 08:11N 36°48' W 121°47'0 0.0
2018-Apr-21 07:40N 36°48' W 121°47'0 0.0
2018-Apr-21 07:28N 36°48' W 121°47'0 0.0
2018-Apr-21 06:59N 36°48' W 121°47'0 0.0
2018-Apr-21 06:25N 36°48' W 121°47'0 0.0
2018-Apr-21 05:58N 36°48' W 121°47'0 0.0
2018-Apr-21 05:28N 36°48' W 121°47'0 0.0
2018-Apr-21 04:55N 36°48' W 121°47'0 0.0
2018-Apr-21 04:22N 36°48' W 121°47'0 0.0
2018-Apr-21 03:58N 36°48' W 121°47'0 0.0
2018-Apr-21 03:28N 36°48' W 121°47'0 0.0
2018-Apr-21 02:58N 36°48' W 121°47'0 0.0
2018-Apr-21 02:28N 36°48' W 121°47'0 0.0
2018-Apr-21 01:55N 36°48' W 121°47'0 0.0
2018-Apr-21 01:25N 36°48' W 121°47'0 0.0
2018-Apr-21 00:13N 36°48' W 121°47'0 0.0
2018-Apr-20 23:49N 36°48' W 121°47'0 0.0
2018-Apr-20 23:22N 36°48' W 121°47'0 0.0
2018-Apr-20 22:56N 36°48' W 121°47'0 0.0
2018-Apr-20 22:13N 36°48' W 121°47'0 0.0
2018-Apr-20 21:55N 36°48' W 121°47'0 0.0
2018-Apr-20 21:25N 36°48' W 121°47'0 0.0
2018-Apr-20 20:46N 36°48' W 121°47'0 0.0
2018-Apr-20 20:13N 36°48' W 121°47'0 0.0
2018-Apr-20 19:40N 36°48' W 121°47'0 0.0
2018-Apr-20 19:19N 36°48' W 121°47'0 0.0
2018-Apr-20 18:46N 36°48' W 121°47'0 0.0
2018-Apr-20 17:55N 36°48' W 121°47'0 0.0
2018-Apr-20 17:25N 36°48' W 121°47'0 0.0
2018-Apr-20 08:28N 36°48' W 121°47'0 0.0
2018-Apr-20 07:55N 36°48' W 121°47'0 0.0
2018-Apr-20 07:28N 36°48' W 121°47'0 0.0
2018-Apr-20 06:52N 36°48' W 121°47'0 0.0
2018-Apr-20 06:28N 36°48' W 121°47'0 0.0
2018-Apr-20 05:58N 36°48' W 121°47'0 0.0
2018-Apr-20 05:28N 36°48' W 121°47'0 0.0
2018-Apr-20 04:55N 36°48' W 121°47'0 0.0
2018-Apr-20 04:22N 36°48' W 121°47'0 0.0
2018-Apr-20 03:58N 36°48' W 121°47'0 0.0
2018-Apr-20 03:10N 36°48' W 121°47'0 0.0
2018-Apr-20 02:52N 36°48' W 121°47'0 0.0
2018-Apr-20 02:25N 36°48' W 121°47'0 0.0
2018-Apr-20 01:34N 36°48' W 121°47'0 0.0
2018-Apr-20 01:28N 36°48' W 121°47'0 0.0
2018-Apr-20 00:47N 36°48' W 121°47'0 0.0
2018-Apr-20 00:19N 36°48' W 121°47'0 0.0
2018-Apr-19 23:58N 36°48' W 121°47'0 0.0
2018-Apr-19 23:22N 36°48' W 121°47'0 0.0
2018-Apr-19 22:58N 36°48' W 121°47'0 0.0
2018-Apr-19 22:22N 36°48' W 121°47'0 0.0
2018-Apr-19 21:55N 36°48' W 121°47'0 0.0
2018-Apr-19 21:28N 36°48' W 121°47'0 0.0
2018-Apr-19 20:58N 36°48' W 121°47'0 0.0
2018-Apr-19 20:22N 36°48' W 121°47'0 0.0
2018-Apr-19 19:50N 36°48' W 121°47'0 0.7
2018-Apr-19 19:26N 36°48' W 121°47'5 9.2
2018-Apr-19 18:55N 36°47' W 121°53'7 7.0
2018-Apr-19 17:57N 36°46' W 122°01'0 0.1
2018-Apr-19 17:29N 36°46' W 122°01'0 0.3
2018-Apr-19 16:52N 36°46' W 122°01'2 3.9
2018-Apr-19 16:26N 36°45' W 122°03'0 0.2
2018-Apr-19 15:59N 36°45' W 122°03'2 2.9
2018-Apr-19 15:27N 36°45' W 122°01'5 9.7
2018-Apr-19 14:58N 36°46' W 121°55'510.8
2018-Apr-19 14:30N 36°48' W 121°50'2 3.2
2018-Apr-19 13:55N 36°48' W 121°47'0 0.0
2018-Apr-19 13:27N 36°48' W 121°47'0 0.0
2018-Apr-19 12:48N 36°48' W 121°47'0 0.0
2018-Apr-19 12:27N 36°48' W 121°47'0 0.0
2018-Apr-19 11:54N 36°48' W 121°47'0 0.0
2018-Apr-19 11:27N 36°48' W 121°47'0 0.0
2018-Apr-19 10:58N 36°48' W 121°47'0 0.0
2018-Apr-19 10:29N 36°48' W 121°47'0 0.0
2018-Apr-19 10:00N 36°48' W 121°47'0 0.0
2018-Apr-19 09:25N 36°48' W 121°47'0 0.0
2018-Apr-19 09:00N 36°48' W 121°47'0 0.0
2018-Apr-19 08:28N 36°48' W 121°47'0 0.0
2018-Apr-19 07:57N 36°48' W 121°47'0 0.0
2018-Apr-19 07:27N 36°48' W 121°47'0 0.0
2018-Apr-19 06:58N 36°48' W 121°47'0 0.0
2018-Apr-19 06:27N 36°48' W 121°47'0 0.0
2018-Apr-19 05:54N 36°48' W 121°47'0 0.0
2018-Apr-19 05:24N 36°48' W 121°47'0 0.0
2018-Apr-19 04:57N 36°48' W 121°47'0 0.0
2018-Apr-19 04:30N 36°48' W 121°47'0 0.0
2018-Apr-19 03:57N 36°48' W 121°47'0 0.0
2018-Apr-19 03:27N 36°48' W 121°47'0 0.0
2018-Apr-19 02:57N 36°48' W 121°47'0 0.0
2018-Apr-19 02:27N 36°48' W 121°47'0 0.0
2018-Apr-19 01:57N 36°48' W 121°47'0 0.0
2018-Apr-19 00:06N 36°48' W 121°47'0 0.0
2018-Apr-18 23:57N 36°48' W 121°47'0 0.0
2018-Apr-18 23:27N 36°48' W 121°47'0 0.0
2018-Apr-18 22:56N 36°48' W 121°47'0 0.0
2018-Apr-18 22:30N 36°48' W 121°47'0 0.0
2018-Apr-18 21:57N 36°48' W 121°47'0 0.0
2018-Apr-18 21:14N 36°48' W 121°47'0 0.0
2018-Apr-18 20:48N 36°48' W 121°47'0 0.0
2018-Apr-18 20:29N 36°48' W 121°47'0 0.0
2018-Apr-18 20:00N 36°48' W 121°47'0 0.0
2018-Apr-18 19:29N 36°48' W 121°47'0 0.0
2018-Apr-18 19:00N 36°48' W 121°47'0 0.0
2018-Apr-18 18:30N 36°48' W 121°47'0 0.0
2018-Apr-18 17:44N 36°48' W 121°47'0 0.0
2018-Apr-18 17:29N 36°48' W 121°47'0 0.0
2018-Apr-18 16:56N 36°48' W 121°47'0 0.0
2018-Apr-18 16:26N 36°48' W 121°47'0 0.0
2018-Apr-18 15:59N 36°48' W 121°47'0 0.0
2018-Apr-18 15:24N 36°48' W 121°47'0 0.0
2018-Apr-18 14:59N 36°48' W 121°47'0 0.0
2018-Apr-18 14:27N 36°48' W 121°47'0 0.0
2018-Apr-18 13:56N 36°48' W 121°47'0 0.0
2018-Apr-18 13:27N 36°48' W 121°47'0 0.0
2018-Apr-18 12:57N 36°48' W 121°47'0 0.0
2018-Apr-18 12:27N 36°48' W 121°47'0 0.0
2018-Apr-18 11:56N 36°48' W 121°47'0 0.0
2018-Apr-18 11:27N 36°48' W 121°47'0 0.0
2018-Apr-18 10:58N 36°48' W 121°47'0 0.0
2018-Apr-18 10:26N 36°48' W 121°47'0 0.0
2018-Apr-18 10:00N 36°48' W 121°47'0 0.0
2018-Apr-18 09:29N 36°48' W 121°47'0 0.0
2018-Apr-18 08:59N 36°48' W 121°47'0 0.0
2018-Apr-18 08:21N 36°48' W 121°47'0 0.0
2018-Apr-18 07:54N 36°48' W 121°47'0 0.0
2018-Apr-18 07:29N 36°48' W 121°47'0 0.0
2018-Apr-18 06:56N 36°48' W 121°47'0 0.0
2018-Apr-18 06:26N 36°48' W 121°47'0 0.0
2018-Apr-18 05:56N 36°48' W 121°47'0 0.0
2018-Apr-18 05:29N 36°48' W 121°47'0 0.0
2018-Apr-18 04:56N 36°48' W 121°47'0 0.0
2018-Apr-18 04:26N 36°48' W 121°47'0 0.0
2018-Apr-18 03:56N 36°48' W 121°47'0 0.0
2018-Apr-18 03:20N 36°48' W 121°47'0 0.0
2018-Apr-18 02:44N 36°48' W 121°47'0 0.0
2018-Apr-18 02:20N 36°48' W 121°47'0 0.0
2018-Apr-18 01:56N 36°48' W 121°47'0 0.0
2018-Apr-18 01:26N 36°48' W 121°47'0 0.0
2018-Apr-18 00:56N 36°48' W 121°47'0 0.0
2018-Apr-18 00:26N 36°48' W 121°47'0 0.0
2018-Apr-17 23:56N 36°48' W 121°47'0 0.0
2018-Apr-17 23:26N 36°48' W 121°47'0 0.0
2018-Apr-17 22:58N 36°48' W 121°47'0 0.0
2018-Apr-17 22:29N 36°48' W 121°47'0 0.0
2018-Apr-17 21:57N 36°48' W 121°47'0 0.0
2018-Apr-17 21:30N 36°48' W 121°47'  

Dump ship's entire track history